sensor_id;sensor_type;location;lat;lon;timestamp;pressure;altitude;pressure_sealevel;temperature;humidity
10474;BME280;5284;50.446;7.904;2023-12-29T00:01:47;98122.09;;;8.18;100.00
10474;BME280;5284;50.446;7.904;2023-12-29T00:06:50;98116.13;;;8.15;100.00
10474;BME280;5284;50.446;7.904;2023-12-29T00:12:04;98119.28;;;8.20;100.00
10474;BME280;5284;50.446;7.904;2023-12-29T00:17:08;98113.34;;;8.16;100.00
10474;BME280;5284;50.446;7.904;2023-12-29T00:22:11;98094.28;;;8.11;100.00
10474;BME280;5284;50.446;7.904;2023-12-29T00:27:16;98109.03;;;8.04;100.00
10474;BME280;5284;50.446;7.904;2023-12-29T00:32:20;98110.16;;;8.02;100.00
10474;BME280;5284;50.446;7.904;2023-12-29T00:37:25;98109.66;;;8.08;100.00
10474;BME280;5284;50.446;7.904;2023-12-29T00:42:28;98123.28;;;8.03;100.00
10474;BME280;5284;50.446;7.904;2023-12-29T00:47:32;98113.13;;;8.08;100.00
10474;BME280;5284;50.446;7.904;2023-12-29T00:52:36;98121.72;;;8.12;100.00
10474;BME280;5284;50.446;7.904;2023-12-29T00:57:38;98126.16;;;8.11;100.00
10474;BME280;5284;50.446;7.904;2023-12-29T01:02:43;98117.81;;;8.16;100.00
10474;BME280;5284;50.446;7.904;2023-12-29T01:07:47;98116.78;;;8.18;100.00
10474;BME280;5284;50.446;7.904;2023-12-29T01:12:51;98107.13;;;8.17;100.00
10474;BME280;5284;50.446;7.904;2023-12-29T01:17:55;98103.97;;;8.23;100.00
10474;BME280;5284;50.446;7.904;2023-12-29T01:22:59;98080.09;;;8.33;100.00
10474;BME280;5284;50.446;7.904;2023-12-29T01:28:04;98070.94;;;8.37;100.00
10474;BME280;5284;50.446;7.904;2023-12-29T01:33:09;98074.94;;;8.31;100.00
10474;BME280;5284;50.446;7.904;2023-12-29T01:38:12;98053.75;;;8.41;100.00
10474;BME280;5284;50.446;7.904;2023-12-29T01:43:15;98065.75;;;8.35;100.00
10474;BME280;5284;50.446;7.904;2023-12-29T01:48:22;98057.91;;;8.34;100.00
10474;BME280;5284;50.446;7.904;2023-12-29T01:53:26;98061.50;;;8.33;100.00
10474;BME280;5284;50.446;7.904;2023-12-29T01:58:43;98064.06;;;8.34;100.00
10474;BME280;5284;50.446;7.904;2023-12-29T02:03:48;98050.66;;;8.36;100.00
10474;BME280;5284;50.446;7.904;2023-12-29T02:08:51;98061.03;;;8.39;100.00
10474;BME280;5284;50.446;7.904;2023-12-29T02:13:55;98055.44;;;8.42;100.00
10474;BME280;5284;50.446;7.904;2023-12-29T02:19:01;98054.59;;;8.41;100.00
10474;BME280;5284;50.446;7.904;2023-12-29T02:24:08;98072.88;;;8.35;100.00
10474;BME280;5284;50.446;7.904;2023-12-29T02:29:14;98061.72;;;8.41;100.00
10474;BME280;5284;50.446;7.904;2023-12-29T02:34:22;98061.31;;;8.45;100.00
10474;BME280;5284;50.446;7.904;2023-12-29T02:39:31;98049.28;;;8.41;100.00
10474;BME280;5284;50.446;7.904;2023-12-29T02:44:36;98044.94;;;8.40;100.00
10474;BME280;5284;50.446;7.904;2023-12-29T02:49:41;98041.56;;;8.38;100.00
10474;BME280;5284;50.446;7.904;2023-12-29T02:54:44;98043.44;;;8.47;100.00
10474;BME280;5284;50.446;7.904;2023-12-29T02:59:49;98040.94;;;8.46;100.00
10474;BME280;5284;50.446;7.904;2023-12-29T03:04:52;98039.69;;;8.50;100.00
10474;BME280;5284;50.446;7.904;2023-12-29T03:09:56;98005.97;;;8.50;100.00
10474;BME280;5284;50.446;7.904;2023-12-29T03:15:01;98012.75;;;8.54;100.00
10474;BME280;5284;50.446;7.904;2023-12-29T03:20:05;98017.78;;;8.57;100.00
10474;BME280;5284;50.446;7.904;2023-12-29T03:25:11;98025.63;;;8.59;100.00
10474;BME280;5284;50.446;7.904;2023-12-29T03:30:16;98027.75;;;8.65;100.00
10474;BME280;5284;50.446;7.904;2023-12-29T03:35:19;98010.59;;;8.69;100.00
10474;BME280;5284;50.446;7.904;2023-12-29T03:40:22;98011.16;;;8.72;100.00
10474;BME280;5284;50.446;7.904;2023-12-29T03:45:28;98008.38;;;8.74;100.00
10474;BME280;5284;50.446;7.904;2023-12-29T03:50:31;98006.44;;;8.76;100.00
10474;BME280;5284;50.446;7.904;2023-12-29T03:55:34;97987.66;;;8.77;100.00
10474;BME280;5284;50.446;7.904;2023-12-29T04:00:38;98009.19;;;8.74;100.00
10474;BME280;5284;50.446;7.904;2023-12-29T04:05:43;97988.63;;;8.76;100.00
10474;BME280;5284;50.446;7.904;2023-12-29T04:10:47;97964.72;;;8.76;100.00
10474;BME280;5284;50.446;7.904;2023-12-29T04:15:54;97961.22;;;8.76;100.00
10474;BME280;5284;50.446;7.904;2023-12-29T04:20:57;97970.03;;;8.76;100.00
10474;BME280;5284;50.446;7.904;2023-12-29T04:26:00;97950.59;;;8.76;100.00
10474;BME280;5284;50.446;7.904;2023-12-29T04:31:05;97950.19;;;8.80;100.00
10474;BME280;5284;50.446;7.904;2023-12-29T04:36:09;97950.34;;;8.79;100.00
10474;BME280;5284;50.446;7.904;2023-12-29T04:41:13;97954.66;;;8.80;100.00
10474;BME280;5284;50.446;7.904;2023-12-29T04:46:18;97954.41;;;8.83;100.00
10474;BME280;5284;50.446;7.904;2023-12-29T04:51:21;97970.34;;;8.83;100.00
10474;BME280;5284;50.446;7.904;2023-12-29T04:56:24;97970.34;;;8.83;100.00
10474;BME280;5284;50.446;7.904;2023-12-29T05:01:28;97960.53;;;8.83;100.00
10474;BME280;5284;50.446;7.904;2023-12-29T05:06:32;97976.75;;;8.80;100.00
10474;BME280;5284;50.446;7.904;2023-12-29T05:11:35;97962.75;;;8.78;100.00
10474;BME280;5284;50.446;7.904;2023-12-29T05:16:39;97967.97;;;8.80;100.00
10474;BME280;5284;50.446;7.904;2023-12-29T05:21:43;97962.75;;;8.78;100.00
10474;BME280;5284;50.446;7.904;2023-12-29T05:26:46;97956.75;;;8.76;100.00
10474;BME280;5284;50.446;7.904;2023-12-29T05:31:50;97953.38;;;8.74;100.00
10474;BME280;5284;50.446;7.904;2023-12-29T05:36:53;97965.84;;;8.74;100.00
10474;BME280;5284;50.446;7.904;2023-12-29T05:41:57;97958.84;;;8.73;100.00
10474;BME280;5284;50.446;7.904;2023-12-29T05:47:02;97963.47;;;8.71;100.00
10474;BME280;5284;50.446;7.904;2023-12-29T05:52:06;97974.19;;;8.69;100.00
10474;BME280;5284;50.446;7.904;2023-12-29T05:57:09;97969.88;;;8.68;100.00
10474;BME280;5284;50.446;7.904;2023-12-29T06:02:14;97965.53;;;8.67;100.00
10474;BME280;5284;50.446;7.904;2023-12-29T06:07:16;97961.31;;;8.65;100.00
10474;BME280;5284;50.446;7.904;2023-12-29T06:12:19;97954.56;;;8.61;100.00
10474;BME280;5284;50.446;7.904;2023-12-29T06:17:24;97960.88;;;8.60;100.00
10474;BME280;5284;50.446;7.904;2023-12-29T06:22:27;97980.31;;;8.60;100.00
10474;BME280;5284;50.446;7.904;2023-12-29T06:27:30;97975.84;;;8.61;100.00
10474;BME280;5284;50.446;7.904;2023-12-29T06:32:36;97994.16;;;8.64;100.00
10474;BME280;5284;50.446;7.904;2023-12-29T06:37:40;97996.00;;;8.63;100.00
10474;BME280;5284;50.446;7.904;2023-12-29T06:42:43;97990.69;;;8.63;100.00
10474;BME280;5284;50.446;7.904;2023-12-29T06:47:47;97995.28;;;8.61;100.00
10474;BME280;5284;50.446;7.904;2023-12-29T06:52:52;97992.38;;;8.64;100.00
10474;BME280;5284;50.446;7.904;2023-12-29T06:57:55;97988.75;;;8.65;100.00
10474;BME280;5284;50.446;7.904;2023-12-29T07:03:01;97993.19;;;8.65;100.00
10474;BME280;5284;50.446;7.904;2023-12-29T07:08:05;97997.53;;;8.66;100.00
10474;BME280;5284;50.446;7.904;2023-12-29T07:13:08;97989.44;;;8.67;100.00
10474;BME280;5284;50.446;7.904;2023-12-29T07:18:12;97985.09;;;8.66;100.00
10474;BME280;5284;50.446;7.904;2023-12-29T07:23:17;97988.47;;;8.68;100.00
10474;BME280;5284;50.446;7.904;2023-12-29T07:28:23;97976.75;;;8.71;100.00
10474;BME280;5284;50.446;7.904;2023-12-29T07:33:30;97985.53;;;8.71;100.00
10474;BME280;5284;50.446;7.904;2023-12-29T07:38:33;98011.59;;;8.77;100.00
10474;BME280;5284;50.446;7.904;2023-12-29T07:43:37;97999.88;;;8.80;100.00
10474;BME280;5284;50.446;7.904;2023-12-29T07:48:41;97974.09;;;8.80;100.00
10474;BME280;5284;50.446;7.904;2023-12-29T07:53:45;97971.75;;;8.87;100.00
10474;BME280;5284;50.446;7.904;2023-12-29T07:58:49;97958.19;;;8.90;100.00
10474;BME280;5284;50.446;7.904;2023-12-29T08:03:56;97967.59;;;8.94;100.00
10474;BME280;5284;50.446;7.904;2023-12-29T08:09:00;97968.16;;;8.97;100.00
10474;BME280;5284;50.446;7.904;2023-12-29T08:14:04;97972.38;;;9.00;100.00
10474;BME280;5284;50.446;7.904;2023-12-29T08:19:11;97971.00;;;9.05;100.00
10474;BME280;5284;50.446;7.904;2023-12-29T08:24:15;97970.72;;;9.08;100.00
10474;BME280;5284;50.446;7.904;2023-12-29T08:29:18;97973.25;;;9.09;100.00
10474;BME280;5284;50.446;7.904;2023-12-29T08:34:23;97967.66;;;9.12;100.00
10474;BME280;5284;50.446;7.904;2023-12-29T08:39:29;97981.50;;;9.16;100.00
10474;BME280;5284;50.446;7.904;2023-12-29T08:44:32;97981.13;;;9.20;100.00
10474;BME280;5284;50.446;7.904;2023-12-29T08:49:37;97981.13;;;9.20;100.00
10474;BME280;5284;50.446;7.904;2023-12-29T08:54:42;97974.81;;;9.21;100.00
10474;BME280;5284;50.446;7.904;2023-12-29T08:59:45;97981.97;;;9.21;100.00
10474;BME280;5284;50.446;7.904;2023-12-29T09:04:51;97975.53;;;9.23;100.00
10474;BME280;5284;50.446;7.904;2023-12-29T09:09:54;97973.28;;;9.28;100.00
10474;BME280;5284;50.446;7.904;2023-12-29T09:14:57;97973.44;;;9.27;100.00
10474;BME280;5284;50.446;7.904;2023-12-29T09:20:03;97986.31;;;9.31;100.00
10474;BME280;5284;50.446;7.904;2023-12-29T09:25:12;97978.50;;;9.30;100.00
10474;BME280;5284;50.446;7.904;2023-12-29T09:30:15;97991.78;;;9.30;100.00
10474;BME280;5284;50.446;7.904;2023-12-29T09:35:26;97990.66;;;9.32;100.00
10474;BME280;5284;50.446;7.904;2023-12-29T09:40:29;98002.28;;;9.31;100.00
10474;BME280;5284;50.446;7.904;2023-12-29T09:45:33;98014.50;;;9.34;100.00
10474;BME280;5284;50.446;7.904;2023-12-29T09:50:42;98010.84;;;9.35;100.00
10474;BME280;5284;50.446;7.904;2023-12-29T09:55:48;98016.75;;;9.38;100.00
10474;BME280;5284;50.446;7.904;2023-12-29T10:00:51;98035.22;;;9.40;100.00
10474;BME280;5284;50.446;7.904;2023-12-29T10:05:59;98019.00;;;9.43;100.00
10474;BME280;5284;50.446;7.904;2023-12-29T10:11:04;98007.38;;;9.44;100.00
10474;BME280;5284;50.446;7.904;2023-12-29T10:16:17;98005.84;;;9.51;100.00
10474;BME280;5284;50.446;7.904;2023-12-29T10:21:27;98016.50;;;9.60;100.00
10474;BME280;5284;50.446;7.904;2023-12-29T10:26:31;98010.50;;;9.68;100.00
10474;BME280;5284;50.446;7.904;2023-12-29T10:31:34;98014.72;;;9.70;100.00
10474;BME280;5284;50.446;7.904;2023-12-29T10:36:46;98015.66;;;9.69;100.00
10474;BME280;5284;50.446;7.904;2023-12-29T10:41:50;98021.56;;;9.73;100.00
10474;BME280;5284;50.446;7.904;2023-12-29T10:46:53;98019.34;;;9.87;100.00
10474;BME280;5284;50.446;7.904;2023-12-29T10:51:57;98013.22;;;9.87;100.00
10474;BME280;5284;50.446;7.904;2023-12-29T10:57:01;98003.09;;;9.81;100.00
10474;BME280;5284;50.446;7.904;2023-12-29T11:02:06;98002.53;;;9.77;100.00
10474;BME280;5284;50.446;7.904;2023-12-29T11:07:13;97991.47;;;9.72;100.00
10474;BME280;5284;50.446;7.904;2023-12-29T11:12:16;97991.31;;;9.74;100.00
10474;BME280;5284;50.446;7.904;2023-12-29T11:17:24;97991.72;;;9.79;100.00
10474;BME280;5284;50.446;7.904;2023-12-29T11:22:31;97983.91;;;9.77;100.00
10474;BME280;5284;50.446;7.904;2023-12-29T11:27:35;97989.66;;;9.92;100.00
10474;BME280;5284;50.446;7.904;2023-12-29T11:32:43;97996.50;;;9.94;100.00
10474;BME280;5284;50.446;7.904;2023-12-29T11:38:08;97993.03;;;10.03;100.00
10474;BME280;5284;50.446;7.904;2023-12-29T11:43:16;97981.38;;;10.14;100.00
10474;BME280;5284;50.446;7.904;2023-12-29T11:48:53;97974.25;;;10.14;100.00
10474;BME280;5284;50.446;7.904;2023-12-29T11:53:59;97975.25;;;10.13;100.00
10474;BME280;5284;50.446;7.904;2023-12-29T11:59:15;97972.56;;;10.13;100.00
10474;BME280;5284;50.446;7.904;2023-12-29T12:04:34;97973.28;;;10.15;100.00
10474;BME280;5284;50.446;7.904;2023-12-29T12:09:41;97965.28;;;10.06;100.00
10474;BME280;5284;50.446;7.904;2023-12-29T12:14:50;97966.84;;;10.08;100.00
10474;BME280;5284;50.446;7.904;2023-12-29T12:20:03;97980.00;;;10.10;100.00
10474;BME280;5284;50.446;7.904;2023-12-29T12:25:11;97961.78;;;10.05;100.00
10474;BME280;5284;50.446;7.904;2023-12-29T12:30:18;97951.13;;;10.05;100.00
10474;BME280;5284;50.446;7.904;2023-12-29T12:35:22;97951.53;;;10.01;100.00
10474;BME280;5284;50.446;7.904;2023-12-29T12:40:29;97947.50;;;10.06;100.00
10474;BME280;5284;50.446;7.904;2023-12-29T12:45:42;97947.16;;;10.00;100.00
10474;BME280;5284;50.446;7.904;2023-12-29T12:50:49;97943.25;;;9.94;100.00
10474;BME280;5284;50.446;7.904;2023-12-29T12:55:54;97937.91;;;9.85;100.00
10474;BME280;5284;50.446;7.904;2023-12-29T13:01:00;97963.56;;;9.76;100.00
10474;BME280;5284;50.446;7.904;2023-12-29T13:06:05;97945.06;;;9.84;100.00
10474;BME280;5284;50.446;7.904;2023-12-29T13:11:10;97947.44;;;9.78;100.00
10474;BME280;5284;50.446;7.904;2023-12-29T13:16:16;97927.25;;;9.85;100.00
10474;BME280;5284;50.446;7.904;2023-12-29T13:21:22;97928.25;;;9.93;100.00
10474;BME280;5284;50.446;7.904;2023-12-29T13:26:26;97920.25;;;9.84;100.00
10474;BME280;5284;50.446;7.904;2023-12-29T13:31:32;97920.53;;;9.81;100.00
10474;BME280;5284;50.446;7.904;2023-12-29T13:36:39;97918.84;;;9.80;100.00
10474;BME280;5284;50.446;7.904;2023-12-29T13:41:45;97925.16;;;9.69;100.00
10474;BME280;5284;50.446;7.904;2023-12-29T13:46:48;97927.00;;;9.69;100.00
10474;BME280;5284;50.446;7.904;2023-12-29T13:51:54;97930.75;;;9.66;100.00
10474;BME280;5284;50.446;7.904;2023-12-29T13:56:59;97930.50;;;9.60;100.00
10474;BME280;5284;50.446;7.904;2023-12-29T14:02:15;97914.53;;;9.60;100.00
10474;BME280;5284;50.446;7.904;2023-12-29T14:07:25;97922.34;;;9.61;100.00
10474;BME280;5284;50.446;7.904;2023-12-29T14:12:30;97910.72;;;9.62;100.00
10474;BME280;5284;50.446;7.904;2023-12-29T14:17:33;97919.84;;;9.60;100.00
10474;BME280;5284;50.446;7.904;2023-12-29T14:22:36;97906.66;;;9.58;100.00
10474;BME280;5284;50.446;7.904;2023-12-29T14:27:41;97907.81;;;9.56;100.00
10474;BME280;5284;50.446;7.904;2023-12-29T14:32:44;97917.19;;;9.60;100.00
10474;BME280;5284;50.446;7.904;2023-12-29T14:37:47;97917.88;;;9.62;100.00
10474;BME280;5284;50.446;7.904;2023-12-29T14:42:52;97911.88;;;9.60;100.00
10474;BME280;5284;50.446;7.904;2023-12-29T14:47:56;97901.50;;;9.57;100.00
10474;BME280;5284;50.446;7.904;2023-12-29T14:53:02;97914.13;;;9.55;100.00
10474;BME280;5284;50.446;7.904;2023-12-29T14:58:06;97919.56;;;9.53;100.00
10474;BME280;5284;50.446;7.904;2023-12-29T15:03:10;97907.94;;;9.54;100.00
10474;BME280;5284;50.446;7.904;2023-12-29T15:08:13;97908.09;;;9.53;100.00
10474;BME280;5284;50.446;7.904;2023-12-29T15:13:20;97894.78;;;9.53;100.00
10474;BME280;5284;50.446;7.904;2023-12-29T15:18:26;97893.22;;;9.50;100.00
10474;BME280;5284;50.446;7.904;2023-12-29T15:23:33;97883.56;;;9.49;100.00
10474;BME280;5284;50.446;7.904;2023-12-29T15:28:38;97882.00;;;9.47;100.00
10474;BME280;5284;50.446;7.904;2023-12-29T15:33:42;97882.16;;;9.45;100.00
10474;BME280;5284;50.446;7.904;2023-12-29T15:38:45;97881.59;;;9.42;100.00
10474;BME280;5284;50.446;7.904;2023-12-29T15:43:49;97876.44;;;9.40;100.00
10474;BME280;5284;50.446;7.904;2023-12-29T15:48:53;97874.16;;;9.36;100.00
10474;BME280;5284;50.446;7.904;2023-12-29T15:53:59;97872.78;;;9.32;100.00
10474;BME280;5284;50.446;7.904;2023-12-29T15:59:03;97872.38;;;9.36;100.00
10474;BME280;5284;50.446;7.904;2023-12-29T16:04:07;97873.59;;;9.32;100.00
10474;BME280;5284;50.446;7.904;2023-12-29T16:09:10;97866.47;;;9.33;100.00
10474;BME280;5284;50.446;7.904;2023-12-29T16:14:14;97865.22;;;9.37;100.00
10474;BME280;5284;50.446;7.904;2023-12-29T16:19:18;97866.47;;;9.33;100.00
10474;BME280;5284;50.446;7.904;2023-12-29T16:24:21;97868.28;;;9.32;100.00
10474;BME280;5284;50.446;7.904;2023-12-29T16:29:26;97864.50;;;9.35;100.00
10474;BME280;5284;50.446;7.904;2023-12-29T16:34:30;97854.69;;;9.35;100.00
10474;BME280;5284;50.446;7.904;2023-12-29T16:39:33;97864.50;;;9.35;100.00
10474;BME280;5284;50.446;7.904;2023-12-29T16:44:40;97869.53;;;9.38;100.00
10474;BME280;5284;50.446;7.904;2023-12-29T16:49:43;97858.78;;;9.39;100.00
10474;BME280;5284;50.446;7.904;2023-12-29T16:54:46;97865.63;;;9.42;100.00
10474;BME280;5284;50.446;7.904;2023-12-29T16:59:50;97860.31;;;9.42;100.00
10474;BME280;5284;50.446;7.904;2023-12-29T17:04:53;97852.19;;;9.43;100.00
10474;BME280;5284;50.446;7.904;2023-12-29T17:09:56;97844.34;;;9.42;100.00
10474;BME280;5284;50.446;7.904;2023-12-29T17:15:02;97843.50;;;9.41;100.00
10474;BME280;5284;50.446;7.904;2023-12-29T17:20:06;97847.97;;;9.41;100.00
10474;BME280;5284;50.446;7.904;2023-12-29T17:25:11;97843.78;;;9.38;100.00
10474;BME280;5284;50.446;7.904;2023-12-29T17:30:16;97847.97;;;9.41;100.00
10474;BME280;5284;50.446;7.904;2023-12-29T17:35:20;97847.97;;;9.41;100.00
10474;BME280;5284;50.446;7.904;2023-12-29T17:40:26;97855.97;;;9.41;100.00
10474;BME280;5284;50.446;7.904;2023-12-29T17:45:30;97867.59;;;9.40;100.00
10474;BME280;5284;50.446;7.904;2023-12-29T17:50:33;97863.94;;;9.41;100.00
10474;BME280;5284;50.446;7.904;2023-12-29T17:55:36;97865.78;;;9.40;100.00
10474;BME280;5284;50.446;7.904;2023-12-29T18:00:41;97859.88;;;9.37;100.00
10474;BME280;5284;50.446;7.904;2023-12-29T18:05:44;97860.28;;;9.32;100.00
10474;BME280;5284;50.446;7.904;2023-12-29T18:10:52;97871.06;;;9.21;100.00
10474;BME280;5284;50.446;7.904;2023-12-29T18:15:58;97876.38;;;9.12;100.00
10474;BME280;5284;50.446;7.904;2023-12-29T18:21:03;97874.28;;;9.06;100.00
10474;BME280;5284;50.446;7.904;2023-12-29T18:26:06;97872.59;;;9.05;100.00
10474;BME280;5284;50.446;7.904;2023-12-29T18:31:11;97877.09;;;9.05;100.00
10474;BME280;5284;50.446;7.904;2023-12-29T18:36:16;97884.38;;;9.03;100.00
10474;BME280;5284;50.446;7.904;2023-12-29T18:41:19;97875.25;;;9.05;100.00
10474;BME280;5284;50.446;7.904;2023-12-29T18:46:25;97877.22;;;9.03;100.00
10474;BME280;5284;50.446;7.904;2023-12-29T18:51:31;97879.56;;;8.97;100.00
10474;BME280;5284;50.446;7.904;2023-12-29T18:56:35;97869.91;;;8.86;100.00
10474;BME280;5284;50.446;7.904;2023-12-29T19:01:45;97879.09;;;8.82;100.00
10474;BME280;5284;50.446;7.904;2023-12-29T19:06:48;97875.19;;;8.77;100.00
10474;BME280;5284;50.446;7.904;2023-12-29T19:11:52;97883.28;;;8.75;100.00
10474;BME280;5284;50.446;7.904;2023-12-29T19:16:58;97896.47;;;8.77;100.00
10474;BME280;5284;50.446;7.904;2023-12-29T19:22:02;97898.13;;;8.78;100.00
10474;BME280;5284;50.446;7.904;2023-12-29T19:27:06;97895.59;;;8.76;100.00
10474;BME280;5284;50.446;7.904;2023-12-29T19:32:11;97899.81;;;8.79;100.00
10474;BME280;5284;50.446;7.904;2023-12-29T19:37:16;97898.41;;;8.75;100.00
10474;BME280;5284;50.446;7.904;2023-12-29T19:42:19;97895.16;;;8.71;100.00
10474;BME280;5284;50.446;7.904;2023-12-29T19:47:24;97882.84;;;8.70;100.00
10474;BME280;5284;50.446;7.904;2023-12-29T19:52:28;97888.16;;;8.70;100.00
10474;BME280;5284;50.446;7.904;2023-12-29T19:57:31;97890.00;;;8.70;100.00
10474;BME280;5284;50.446;7.904;2023-12-29T20:02:35;97885.41;;;8.72;100.00
10474;BME280;5284;50.446;7.904;2023-12-29T20:07:39;97874.75;;;8.72;100.00
10474;BME280;5284;50.446;7.904;2023-12-29T20:12:42;97873.91;;;8.71;100.00
10474;BME280;5284;50.446;7.904;2023-12-29T20:17:47;97877.16;;;8.75;100.00
10474;BME280;5284;50.446;7.904;2023-12-29T20:22:50;97875.31;;;8.75;100.00
10474;BME280;5284;50.446;7.904;2023-12-29T20:27:55;97885.56;;;8.80;100.00
10474;BME280;5284;50.446;7.904;2023-12-29T20:32:59;97897.59;;;8.84;100.00
10474;BME280;5284;50.446;7.904;2023-12-29T20:38:03;97892.16;;;8.85;100.00
10474;BME280;5284;50.446;7.904;2023-12-29T20:43:06;97887.78;;;8.84;100.00
10474;BME280;5284;50.446;7.904;2023-12-29T20:48:11;97887.94;;;8.83;100.00
10474;BME280;5284;50.446;7.904;2023-12-29T20:53:14;97896.63;;;8.85;100.00
10474;BME280;5284;50.446;7.904;2023-12-29T20:58:17;97895.06;;;8.82;100.00
10474;BME280;5284;50.446;7.904;2023-12-29T21:03:22;97891.84;;;8.79;100.00
10474;BME280;5284;50.446;7.904;2023-12-29T21:08:27;97914.53;;;8.83;100.00
10474;BME280;5284;50.446;7.904;2023-12-29T21:13:30;97914.53;;;8.83;100.00
10474;BME280;5284;50.446;7.904;2023-12-29T21:18:35;97906.81;;;8.80;100.00
10474;BME280;5284;50.446;7.904;2023-12-29T21:23:38;97920.38;;;8.77;100.00
10474;BME280;5284;50.446;7.904;2023-12-29T21:28:43;97910.72;;;8.76;100.00
10474;BME280;5284;50.446;7.904;2023-12-29T21:33:48;97911.56;;;8.76;100.00
10474;BME280;5284;50.446;7.904;2023-12-29T21:38:53;97900.66;;;8.79;100.00
10474;BME280;5284;50.446;7.904;2023-12-29T21:44:00;97901.78;;;8.77;100.00
10474;BME280;5284;50.446;7.904;2023-12-29T21:49:06;97906.66;;;8.72;100.00
10474;BME280;5284;50.446;7.904;2023-12-29T21:54:10;97911.72;;;8.75;100.00
10474;BME280;5284;50.446;7.904;2023-12-29T21:59:13;97910.84;;;8.74;100.00
10474;BME280;5284;50.446;7.904;2023-12-29T22:04:18;97930.59;;;8.72;100.00
10474;BME280;5284;50.446;7.904;2023-12-29T22:09:25;97929.88;;;8.70;100.00
10474;BME280;5284;50.446;7.904;2023-12-29T22:14:28;97930.00;;;8.68;100.00
10474;BME280;5284;50.446;7.904;2023-12-29T22:19:33;97936.69;;;8.63;100.00
10474;BME280;5284;50.446;7.904;2023-12-29T22:24:37;97932.50;;;8.60;100.00
10474;BME280;5284;50.446;7.904;2023-12-29T22:29:40;97934.97;;;8.52;100.00
10474;BME280;5284;50.446;7.904;2023-12-29T22:34:45;97945.13;;;8.47;100.00
10474;BME280;5284;50.446;7.904;2023-12-29T22:39:48;97946.63;;;8.40;100.00
10474;BME280;5284;50.446;7.904;2023-12-29T22:44:53;97952.81;;;8.41;100.00
10474;BME280;5284;50.446;7.904;2023-12-29T22:49:57;97951.66;;;8.34;100.00
10474;BME280;5284;50.446;7.904;2023-12-29T22:55:02;97963.38;;;8.31;100.00
10474;BME280;5284;50.446;7.904;2023-12-29T23:00:07;97980.41;;;8.29;100.00
10474;BME280;5284;50.446;7.904;2023-12-29T23:05:13;97968.34;;;8.25;100.00
10474;BME280;5284;50.446;7.904;2023-12-29T23:10:17;97967.53;;;8.24;100.00
10474;BME280;5284;50.446;7.904;2023-12-29T23:15:22;97959.94;;;8.20;100.00
10474;BME280;5284;50.446;7.904;2023-12-29T23:20:26;97956.81;;;8.15;100.00
10474;BME280;5284;50.446;7.904;2023-12-29T23:25:32;97977.81;;;8.18;100.00
10474;BME280;5284;50.446;7.904;2023-12-29T23:30:35;97982.31;;;8.17;100.00
10474;BME280;5284;50.446;7.904;2023-12-29T23:35:39;97963.44;;;8.20;100.00
10474;BME280;5284;50.446;7.904;2023-12-29T23:40:42;97959.13;;;8.19;100.00
10474;BME280;5284;50.446;7.904;2023-12-29T23:45:45;97968.50;;;8.23;100.00
10474;BME280;5284;50.446;7.904;2023-12-29T23:50:50;97962.47;;;8.21;100.00
10474;BME280;5284;50.446;7.904;2023-12-29T23:55:53;97956.34;;;8.10;100.00
